sensor_id;sensor_type;location;lat;lon;timestamp;P1;durP1;ratioP1;P2;durP2;ratioP2
12567;SDS011;6349;50.904;6.136;2023-05-14T00:00:00;5.18;;;4.78;;
12567;SDS011;6349;50.904;6.136;2023-05-14T00:02:01;4.90;;;4.50;;
12567;SDS011;6349;50.904;6.136;2023-05-14T00:04:02;5.57;;;5.07;;
12567;SDS011;6349;50.904;6.136;2023-05-14T00:06:03;6.30;;;5.70;;
12567;SDS011;6349;50.904;6.136;2023-05-14T00:08:05;6.85;;;6.07;;
12567;SDS011;6349;50.904;6.136;2023-05-14T00:10:07;6.93;;;6.32;;
12567;SDS011;6349;50.904;6.136;2023-05-14T00:12:08;8.77;;;7.03;;
12567;SDS011;6349;50.904;6.136;2023-05-14T00:14:08;7.05;;;6.38;;
12567;SDS011;6349;50.904;6.136;2023-05-14T00:16:10;6.82;;;6.32;;
12567;SDS011;6349;50.904;6.136;2023-05-14T00:18:10;6.15;;;5.65;;
12567;SDS011;6349;50.904;6.136;2023-05-14T00:20:11;6.80;;;6.20;;
12567;SDS011;6349;50.904;6.136;2023-05-14T00:22:12;6.53;;;5.68;;
12567;SDS011;6349;50.904;6.136;2023-05-14T00:24:12;6.95;;;6.25;;
12567;SDS011;6349;50.904;6.136;2023-05-14T00:26:13;6.68;;;6.07;;
12567;SDS011;6349;50.904;6.136;2023-05-14T00:28:14;6.18;;;5.68;;
12567;SDS011;6349;50.904;6.136;2023-05-14T00:30:15;5.82;;;5.30;;
12567;SDS011;6349;50.904;6.136;2023-05-14T00:32:16;6.13;;;5.63;;
12567;SDS011;6349;50.904;6.136;2023-05-14T00:34:16;6.57;;;6.07;;
12567;SDS011;6349;50.904;6.136;2023-05-14T00:36:18;6.90;;;6.25;;
12567;SDS011;6349;50.904;6.136;2023-05-14T00:38:19;5.90;;;5.50;;
12567;SDS011;6349;50.904;6.136;2023-05-14T00:40:22;7.25;;;6.65;;
12567;SDS011;6349;50.904;6.136;2023-05-14T00:42:25;6.65;;;6.03;;
12567;SDS011;6349;50.904;6.136;2023-05-14T00:44:26;8.00;;;7.30;;
12567;SDS011;6349;50.904;6.136;2023-05-14T00:46:27;6.93;;;6.32;;
12567;SDS011;6349;50.904;6.136;2023-05-14T00:48:28;6.82;;;6.30;;
12567;SDS011;6349;50.904;6.136;2023-05-14T00:50:28;7.25;;;6.65;;
12567;SDS011;6349;50.904;6.136;2023-05-14T00:52:29;6.63;;;6.13;;
12567;SDS011;6349;50.904;6.136;2023-05-14T00:54:31;6.10;;;5.60;;
12567;SDS011;6349;50.904;6.136;2023-05-14T00:56:31;6.33;;;5.80;;
12567;SDS011;6349;50.904;6.136;2023-05-14T00:58:33;6.40;;;5.90;;
12567;SDS011;6349;50.904;6.136;2023-05-14T01:00:34;5.85;;;5.30;;
12567;SDS011;6349;50.904;6.136;2023-05-14T01:02:35;6.60;;;6.00;;
12567;SDS011;6349;50.904;6.136;2023-05-14T01:04:37;7.67;;;6.43;;
12567;SDS011;6349;50.904;6.136;2023-05-14T01:06:48;6.95;;;6.38;;
12567;SDS011;6349;50.904;6.136;2023-05-14T01:09:16;6.30;;;5.80;;
12567;SDS011;6349;50.904;6.136;2023-05-14T01:16:28;6.30;;;5.80;;
12567;SDS011;6349;50.904;6.136;2023-05-14T01:18:33;7.25;;;6.60;;
12567;SDS011;6349;50.904;6.136;2023-05-14T01:20:35;6.57;;;6.07;;
12567;SDS011;6349;50.904;6.136;2023-05-14T01:22:37;6.37;;;5.87;;
12567;SDS011;6349;50.904;6.136;2023-05-14T01:24:39;6.70;;;6.10;;
12567;SDS011;6349;50.904;6.136;2023-05-14T01:26:40;6.10;;;5.50;;
12567;SDS011;6349;50.904;6.136;2023-05-14T01:28:42;6.63;;;6.03;;
12567;SDS011;6349;50.904;6.136;2023-05-14T01:31:01;7.20;;;6.60;;
12567;SDS011;6349;50.904;6.136;2023-05-14T01:33:12;6.60;;;6.10;;
12567;SDS011;6349;50.904;6.136;2023-05-14T01:35:15;6.90;;;6.40;;
12567;SDS011;6349;50.904;6.136;2023-05-14T01:37:16;6.60;;;6.10;;
12567;SDS011;6349;50.904;6.136;2023-05-14T01:39:17;6.43;;;5.93;;
12567;SDS011;6349;50.904;6.136;2023-05-14T01:41:19;6.23;;;5.73;;
12567;SDS011;6349;50.904;6.136;2023-05-14T01:43:21;6.80;;;6.20;;
12567;SDS011;6349;50.904;6.136;2023-05-14T01:45:22;6.80;;;6.20;;
12567;SDS011;6349;50.904;6.136;2023-05-14T01:47:23;6.93;;;6.33;;
12567;SDS011;6349;50.904;6.136;2023-05-14T01:49:24;7.13;;;6.53;;
12567;SDS011;6349;50.904;6.136;2023-05-14T01:51:24;6.60;;;6.10;;
12567;SDS011;6349;50.904;6.136;2023-05-14T01:53:25;8.03;;;7.30;;
12567;SDS011;6349;50.904;6.136;2023-05-14T01:55:27;7.20;;;6.60;;
12567;SDS011;6349;50.904;6.136;2023-05-14T01:57:27;6.60;;;6.10;;
12567;SDS011;6349;50.904;6.136;2023-05-14T01:59:29;6.27;;;5.70;;
12567;SDS011;6349;50.904;6.136;2023-05-14T02:01:30;6.03;;;5.53;;
12567;SDS011;6349;50.904;6.136;2023-05-14T02:03:30;6.07;;;5.57;;
12567;SDS011;6349;50.904;6.136;2023-05-14T02:05:31;5.67;;;5.17;;
12567;SDS011;6349;50.904;6.136;2023-05-14T02:07:31;6.30;;;5.73;;
12567;SDS011;6349;50.904;6.136;2023-05-14T02:09:32;7.00;;;6.37;;
12567;SDS011;6349;50.904;6.136;2023-05-14T02:11:34;6.77;;;6.27;;
12567;SDS011;6349;50.904;6.136;2023-05-14T02:13:34;7.30;;;6.60;;
12567;SDS011;6349;50.904;6.136;2023-05-14T02:15:35;6.70;;;6.10;;
12567;SDS011;6349;50.904;6.136;2023-05-14T02:17:35;7.10;;;6.50;;
12567;SDS011;6349;50.904;6.136;2023-05-14T02:19:36;7.17;;;6.57;;
12567;SDS011;6349;50.904;6.136;2023-05-14T02:21:38;7.10;;;6.50;;
12567;SDS011;6349;50.904;6.136;2023-05-14T02:23:38;6.20;;;5.70;;
12567;SDS011;6349;50.904;6.136;2023-05-14T02:25:40;6.63;;;6.00;;
12567;SDS011;6349;50.904;6.136;2023-05-14T02:27:41;6.57;;;6.03;;
12567;SDS011;6349;50.904;6.136;2023-05-14T02:29:42;6.73;;;6.13;;
12567;SDS011;6349;50.904;6.136;2023-05-14T02:31:43;6.47;;;5.87;;
12567;SDS011;6349;50.904;6.136;2023-05-14T02:33:44;6.70;;;6.10;;
12567;SDS011;6349;50.904;6.136;2023-05-14T02:35:44;6.20;;;5.73;;
12567;SDS011;6349;50.904;6.136;2023-05-14T02:37:45;7.00;;;6.30;;
12567;SDS011;6349;50.904;6.136;2023-05-14T02:39:45;6.53;;;5.93;;
12567;SDS011;6349;50.904;6.136;2023-05-14T02:41:47;5.40;;;5.00;;
12567;SDS011;6349;50.904;6.136;2023-05-14T02:43:48;6.20;;;5.70;;
12567;SDS011;6349;50.904;6.136;2023-05-14T02:45:49;5.60;;;5.20;;
12567;SDS011;6349;50.904;6.136;2023-05-14T02:47:49;5.80;;;5.40;;
12567;SDS011;6349;50.904;6.136;2023-05-14T02:49:50;5.77;;;5.33;;
12567;SDS011;6349;50.904;6.136;2023-05-14T02:51:50;5.47;;;5.07;;
12567;SDS011;6349;50.904;6.136;2023-05-14T02:53:53;5.20;;;4.80;;
12567;SDS011;6349;50.904;6.136;2023-05-14T02:55:55;6.20;;;5.70;;
12567;SDS011;6349;50.904;6.136;2023-05-14T02:57:55;6.97;;;6.47;;
12567;SDS011;6349;50.904;6.136;2023-05-14T02:59:56;6.13;;;5.63;;
12567;SDS011;6349;50.904;6.136;2023-05-14T03:01:56;6.13;;;5.63;;
12567;SDS011;6349;50.904;6.136;2023-05-14T03:03:57;7.13;;;6.53;;
12567;SDS011;6349;50.904;6.136;2023-05-14T03:05:58;5.97;;;5.47;;
12567;SDS011;6349;50.904;6.136;2023-05-14T03:07:59;6.60;;;6.00;;
12567;SDS011;6349;50.904;6.136;2023-05-14T03:10:01;6.23;;;5.77;;
12567;SDS011;6349;50.904;6.136;2023-05-14T03:12:01;6.60;;;5.93;;
12567;SDS011;6349;50.904;6.136;2023-05-14T03:14:03;6.23;;;5.73;;
12567;SDS011;6349;50.904;6.136;2023-05-14T03:16:04;6.77;;;6.13;;
12567;SDS011;6349;50.904;6.136;2023-05-14T03:18:05;6.77;;;6.20;;
12567;SDS011;6349;50.904;6.136;2023-05-14T03:20:06;6.50;;;5.97;;
12567;SDS011;6349;50.904;6.136;2023-05-14T03:22:07;6.40;;;5.77;;
12567;SDS011;6349;50.904;6.136;2023-05-14T03:24:07;6.50;;;5.93;;
12567;SDS011;6349;50.904;6.136;2023-05-14T03:26:09;6.17;;;5.67;;
12567;SDS011;6349;50.904;6.136;2023-05-14T03:28:10;7.17;;;6.50;;
12567;SDS011;6349;50.904;6.136;2023-05-14T03:30:10;6.53;;;6.00;;
12567;SDS011;6349;50.904;6.136;2023-05-14T03:32:11;6.53;;;6.03;;
12567;SDS011;6349;50.904;6.136;2023-05-14T03:34:12;6.73;;;6.17;;
12567;SDS011;6349;50.904;6.136;2023-05-14T03:36:12;6.70;;;6.10;;
12567;SDS011;6349;50.904;6.136;2023-05-14T03:38:13;6.67;;;6.17;;
12567;SDS011;6349;50.904;6.136;2023-05-14T03:40:13;6.60;;;6.03;;
12567;SDS011;6349;50.904;6.136;2023-05-14T03:42:14;5.70;;;5.30;;
12567;SDS011;6349;50.904;6.136;2023-05-14T03:44:15;6.00;;;5.50;;
12567;SDS011;6349;50.904;6.136;2023-05-14T03:46:15;6.57;;;5.97;;
12567;SDS011;6349;50.904;6.136;2023-05-14T03:48:16;6.10;;;5.60;;
12567;SDS011;6349;50.904;6.136;2023-05-14T03:50:17;6.10;;;5.60;;
12567;SDS011;6349;50.904;6.136;2023-05-14T03:52:17;6.90;;;6.30;;
12567;SDS011;6349;50.904;6.136;2023-05-14T03:54:20;6.07;;;5.57;;
12567;SDS011;6349;50.904;6.136;2023-05-14T03:56:21;6.90;;;6.30;;
12567;SDS011;6349;50.904;6.136;2023-05-14T03:58:22;6.23;;;5.73;;
12567;SDS011;6349;50.904;6.136;2023-05-14T04:00:22;6.63;;;6.13;;
12567;SDS011;6349;50.904;6.136;2023-05-14T04:02:23;6.47;;;5.87;;
12567;SDS011;6349;50.904;6.136;2023-05-14T04:04:24;6.50;;;6.00;;
12567;SDS011;6349;50.904;6.136;2023-05-14T04:06:25;6.40;;;5.90;;
12567;SDS011;6349;50.904;6.136;2023-05-14T04:08:25;6.67;;;6.07;;
12567;SDS011;6349;50.904;6.136;2023-05-14T04:10:26;6.77;;;6.17;;
12567;SDS011;6349;50.904;6.136;2023-05-14T04:12:26;5.83;;;5.43;;
12567;SDS011;6349;50.904;6.136;2023-05-14T04:14:27;6.33;;;5.73;;
12567;SDS011;6349;50.904;6.136;2023-05-14T04:16:28;6.30;;;5.70;;
12567;SDS011;6349;50.904;6.136;2023-05-14T04:18:28;5.97;;;5.37;;
12567;SDS011;6349;50.904;6.136;2023-05-14T04:20:29;6.10;;;5.60;;
12567;SDS011;6349;50.904;6.136;2023-05-14T04:22:31;6.10;;;5.60;;
12567;SDS011;6349;50.904;6.136;2023-05-14T04:24:32;6.03;;;5.53;;
12567;SDS011;6349;50.904;6.136;2023-05-14T04:26:33;5.70;;;5.30;;
12567;SDS011;6349;50.904;6.136;2023-05-14T04:28:34;5.60;;;5.10;;
12567;SDS011;6349;50.904;6.136;2023-05-14T04:30:35;5.83;;;5.33;;
12567;SDS011;6349;50.904;6.136;2023-05-14T04:32:35;5.67;;;5.27;;
12567;SDS011;6349;50.904;6.136;2023-05-14T04:34:36;5.70;;;5.20;;
12567;SDS011;6349;50.904;6.136;2023-05-14T04:36:37;5.80;;;5.37;;
12567;SDS011;6349;50.904;6.136;2023-05-14T04:38:38;6.40;;;5.80;;
12567;SDS011;6349;50.904;6.136;2023-05-14T04:40:39;6.00;;;5.50;;
12567;SDS011;6349;50.904;6.136;2023-05-14T04:42:42;5.67;;;5.27;;
12567;SDS011;6349;50.904;6.136;2023-05-14T04:44:43;6.17;;;5.67;;
12567;SDS011;6349;50.904;6.136;2023-05-14T04:46:44;6.30;;;5.80;;
12567;SDS011;6349;50.904;6.136;2023-05-14T04:48:46;6.23;;;5.63;;
12567;SDS011;6349;50.904;6.136;2023-05-14T04:50:48;6.20;;;5.43;;
12567;SDS011;6349;50.904;6.136;2023-05-14T04:52:52;6.07;;;5.50;;
12567;SDS011;6349;50.904;6.136;2023-05-14T04:54:55;5.43;;;5.03;;
12567;SDS011;6349;50.904;6.136;2023-05-14T04:56:56;5.87;;;5.47;;
12567;SDS011;6349;50.904;6.136;2023-05-14T04:58:57;5.80;;;5.30;;
12567;SDS011;6349;50.904;6.136;2023-05-14T05:00:58;6.23;;;5.60;;
12567;SDS011;6349;50.904;6.136;2023-05-14T05:03:00;5.90;;;5.40;;
12567;SDS011;6349;50.904;6.136;2023-05-14T05:05:01;6.00;;;5.50;;
12567;SDS011;6349;50.904;6.136;2023-05-14T05:07:04;5.60;;;5.10;;
12567;SDS011;6349;50.904;6.136;2023-05-14T05:09:05;5.33;;;4.93;;
12567;SDS011;6349;50.904;6.136;2023-05-14T05:11:07;6.03;;;5.53;;
12567;SDS011;6349;50.904;6.136;2023-05-14T05:13:08;6.07;;;5.50;;
12567;SDS011;6349;50.904;6.136;2023-05-14T05:15:09;5.33;;;4.93;;
12567;SDS011;6349;50.904;6.136;2023-05-14T05:17:10;6.07;;;5.57;;
12567;SDS011;6349;50.904;6.136;2023-05-14T05:19:12;5.97;;;5.47;;
12567;SDS011;6349;50.904;6.136;2023-05-14T05:21:13;5.50;;;5.10;;
12567;SDS011;6349;50.904;6.136;2023-05-14T05:23:16;6.27;;;5.77;;
12567;SDS011;6349;50.904;6.136;2023-05-14T05:25:18;6.33;;;5.80;;
12567;SDS011;6349;50.904;6.136;2023-05-14T05:27:18;6.10;;;5.60;;
12567;SDS011;6349;50.904;6.136;2023-05-14T05:29:21;5.77;;;5.37;;
12567;SDS011;6349;50.904;6.136;2023-05-14T05:31:22;5.80;;;5.40;;
12567;SDS011;6349;50.904;6.136;2023-05-14T05:33:22;6.23;;;5.67;;
12567;SDS011;6349;50.904;6.136;2023-05-14T05:35:24;6.07;;;5.50;;
12567;SDS011;6349;50.904;6.136;2023-05-14T05:37:25;6.03;;;5.63;;
12567;SDS011;6349;50.904;6.136;2023-05-14T05:39:25;6.77;;;6.17;;
12567;SDS011;6349;50.904;6.136;2023-05-14T05:41:28;6.90;;;6.20;;
12567;SDS011;6349;50.904;6.136;2023-05-14T05:43:29;7.10;;;6.37;;
12567;SDS011;6349;50.904;6.136;2023-05-14T05:45:31;7.17;;;6.23;;
12567;SDS011;6349;50.904;6.136;2023-05-14T05:47:31;6.90;;;6.23;;
12567;SDS011;6349;50.904;6.136;2023-05-14T05:49:33;7.80;;;7.00;;
12567;SDS011;6349;50.904;6.136;2023-05-14T05:51:35;7.93;;;7.30;;
12567;SDS011;6349;50.904;6.136;2023-05-14T05:53:36;10.03;;;8.00;;
12567;SDS011;6349;50.904;6.136;2023-05-14T05:55:36;11.97;;;10.17;;
12567;SDS011;6349;50.904;6.136;2023-05-14T05:57:38;11.63;;;10.60;;
12567;SDS011;6349;50.904;6.136;2023-05-14T05:59:40;11.00;;;10.00;;
12567;SDS011;6349;50.904;6.136;2023-05-14T06:01:42;12.60;;;10.37;;
12567;SDS011;6349;50.904;6.136;2023-05-14T06:03:43;11.50;;;10.50;;
12567;SDS011;6349;50.904;6.136;2023-05-14T06:05:44;11.73;;;10.70;;
12567;SDS011;6349;50.904;6.136;2023-05-14T06:07:45;12.23;;;11.13;;
12567;SDS011;6349;50.904;6.136;2023-05-14T06:09:46;12.57;;;11.27;;
12567;SDS011;6349;50.904;6.136;2023-05-14T06:11:46;14.93;;;11.97;;
12567;SDS011;6349;50.904;6.136;2023-05-14T06:13:47;12.60;;;11.40;;
12567;SDS011;6349;50.904;6.136;2023-05-14T06:15:47;13.50;;;12.30;;
12567;SDS011;6349;50.904;6.136;2023-05-14T06:17:48;14.27;;;12.80;;
12567;SDS011;6349;50.904;6.136;2023-05-14T06:19:49;14.90;;;13.60;;
12567;SDS011;6349;50.904;6.136;2023-05-14T06:21:50;14.83;;;13.47;;
12567;SDS011;6349;50.904;6.136;2023-05-14T06:23:51;14.43;;;13.13;;
12567;SDS011;6349;50.904;6.136;2023-05-14T06:25:52;14.23;;;13.00;;
12567;SDS011;6349;50.904;6.136;2023-05-14T06:27:52;15.43;;;14.03;;
12567;SDS011;6349;50.904;6.136;2023-05-14T06:29:54;14.67;;;13.20;;
12567;SDS011;6349;50.904;6.136;2023-05-14T06:31:59;15.87;;;14.27;;
12567;SDS011;6349;50.904;6.136;2023-05-14T06:34:02;16.20;;;14.60;;
12567;SDS011;6349;50.904;6.136;2023-05-14T06:36:04;16.93;;;15.00;;
12567;SDS011;6349;50.904;6.136;2023-05-14T06:38:05;16.83;;;15.13;;
12567;SDS011;6349;50.904;6.136;2023-05-14T06:40:07;19.67;;;17.70;;
12567;SDS011;6349;50.904;6.136;2023-05-14T06:42:08;19.43;;;17.43;;
12567;SDS011;6349;50.904;6.136;2023-05-14T06:44:09;20.27;;;18.17;;
12567;SDS011;6349;50.904;6.136;2023-05-14T06:46:09;20.00;;;18.00;;
12567;SDS011;6349;50.904;6.136;2023-05-14T06:48:10;20.50;;;18.53;;
12567;SDS011;6349;50.904;6.136;2023-05-14T06:50:13;21.57;;;19.40;;
12567;SDS011;6349;50.904;6.136;2023-05-14T06:52:14;21.43;;;19.43;;
12567;SDS011;6349;50.904;6.136;2023-05-14T06:54:17;21.80;;;19.67;;
12567;SDS011;6349;50.904;6.136;2023-05-14T06:56:21;22.43;;;20.23;;
12567;SDS011;6349;50.904;6.136;2023-05-14T06:58:23;23.10;;;21.00;;
12567;SDS011;6349;50.904;6.136;2023-05-14T07:00:24;22.30;;;20.13;;
12567;SDS011;6349;50.904;6.136;2023-05-14T07:02:26;22.43;;;20.10;;
12567;SDS011;6349;50.904;6.136;2023-05-14T07:04:28;22.20;;;20.10;;
12567;SDS011;6349;50.904;6.136;2023-05-14T07:06:30;22.03;;;19.90;;
12567;SDS011;6349;50.904;6.136;2023-05-14T07:08:32;23.00;;;20.87;;
12567;SDS011;6349;50.904;6.136;2023-05-14T07:10:34;21.97;;;19.77;;
12567;SDS011;6349;50.904;6.136;2023-05-14T07:12:36;22.57;;;20.37;;
12567;SDS011;6349;50.904;6.136;2023-05-14T07:14:38;22.13;;;20.03;;
12567;SDS011;6349;50.904;6.136;2023-05-14T07:16:41;22.67;;;20.30;;
12567;SDS011;6349;50.904;6.136;2023-05-14T07:18:43;21.20;;;19.10;;
12567;SDS011;6349;50.904;6.136;2023-05-14T07:20:46;22.10;;;19.93;;
12567;SDS011;6349;50.904;6.136;2023-05-14T07:22:47;22.33;;;20.23;;
12567;SDS011;6349;50.904;6.136;2023-05-14T07:24:49;23.30;;;21.07;;
12567;SDS011;6349;50.904;6.136;2023-05-14T07:26:53;23.67;;;21.30;;
12567;SDS011;6349;50.904;6.136;2023-05-14T07:28:55;24.40;;;22.07;;
12567;SDS011;6349;50.904;6.136;2023-05-14T07:30:57;24.73;;;22.33;;
12567;SDS011;6349;50.904;6.136;2023-05-14T07:32:58;24.23;;;22.00;;
12567;SDS011;6349;50.904;6.136;2023-05-14T07:35:00;24.03;;;21.83;;
12567;SDS011;6349;50.904;6.136;2023-05-14T07:37:02;25.13;;;22.63;;
12567;SDS011;6349;50.904;6.136;2023-05-14T07:39:04;24.83;;;22.50;;
12567;SDS011;6349;50.904;6.136;2023-05-14T07:41:05;23.60;;;21.30;;
12567;SDS011;6349;50.904;6.136;2023-05-14T07:43:08;25.73;;;23.33;;
12567;SDS011;6349;50.904;6.136;2023-05-14T07:45:10;25.67;;;23.30;;
12567;SDS011;6349;50.904;6.136;2023-05-14T07:47:12;26.97;;;24.37;;
12567;SDS011;6349;50.904;6.136;2023-05-14T07:49:14;26.50;;;23.93;;
12567;SDS011;6349;50.904;6.136;2023-05-14T07:51:15;27.23;;;24.63;;
12567;SDS011;6349;50.904;6.136;2023-05-14T07:53:17;26.03;;;23.63;;
12567;SDS011;6349;50.904;6.136;2023-05-14T07:55:19;26.10;;;23.47;;
12567;SDS011;6349;50.904;6.136;2023-05-14T07:57:21;25.67;;;23.33;;
12567;SDS011;6349;50.904;6.136;2023-05-14T07:59:22;25.70;;;23.30;;
12567;SDS011;6349;50.904;6.136;2023-05-14T08:01:27;26.97;;;24.27;;
12567;SDS011;6349;50.904;6.136;2023-05-14T08:03:29;27.17;;;24.43;;
12567;SDS011;6349;50.904;6.136;2023-05-14T08:05:30;27.67;;;24.63;;
12567;SDS011;6349;50.904;6.136;2023-05-14T08:07:33;26.80;;;24.23;;
12567;SDS011;6349;50.904;6.136;2023-05-14T08:09:35;27.90;;;25.10;;
12567;SDS011;6349;50.904;6.136;2023-05-14T08:11:37;25.77;;;23.37;;
12567;SDS011;6349;50.904;6.136;2023-05-14T08:13:39;25.83;;;23.47;;
12567;SDS011;6349;50.904;6.136;2023-05-14T08:15:42;27.43;;;24.80;;
12567;SDS011;6349;50.904;6.136;2023-05-14T08:17:43;26.20;;;23.70;;
12567;SDS011;6349;50.904;6.136;2023-05-14T08:19:45;26.20;;;23.80;;
12567;SDS011;6349;50.904;6.136;2023-05-14T08:21:47;26.23;;;23.77;;
12567;SDS011;6349;50.904;6.136;2023-05-14T08:23:49;25.90;;;23.57;;
12567;SDS011;6349;50.904;6.136;2023-05-14T08:25:51;27.17;;;24.53;;
12567;SDS011;6349;50.904;6.136;2023-05-14T08:27:53;26.50;;;24.10;;
12567;SDS011;6349;50.904;6.136;2023-05-14T08:29:55;26.45;;;23.95;;
12567;SDS011;6349;50.904;6.136;2023-05-14T08:31:57;26.43;;;23.93;;
12567;SDS011;6349;50.904;6.136;2023-05-14T08:33:58;27.83;;;25.30;;
12567;SDS011;6349;50.904;6.136;2023-05-14T08:36:00;26.30;;;23.97;;
12567;SDS011;6349;50.904;6.136;2023-05-14T08:38:02;27.43;;;25.03;;
12567;SDS011;6349;50.904;6.136;2023-05-14T08:40:04;28.23;;;25.63;;
12567;SDS011;6349;50.904;6.136;2023-05-14T08:42:08;27.92;;;25.42;;
12567;SDS011;6349;50.904;6.136;2023-05-14T08:44:14;28.30;;;25.65;;
12567;SDS011;6349;50.904;6.136;2023-05-14T08:46:20;29.23;;;26.67;;
12567;SDS011;6349;50.904;6.136;2023-05-14T08:48:25;29.53;;;26.83;;
12567;SDS011;6349;50.904;6.136;2023-05-14T08:50:29;30.47;;;27.60;;
12567;SDS011;6349;50.904;6.136;2023-05-14T08:52:32;30.63;;;27.53;;
12567;SDS011;6349;50.904;6.136;2023-05-14T08:54:34;29.60;;;26.93;;
12567;SDS011;6349;50.904;6.136;2023-05-14T08:56:36;29.23;;;26.57;;
12567;SDS011;6349;50.904;6.136;2023-05-14T08:58:40;28.67;;;26.00;;
12567;SDS011;6349;50.904;6.136;2023-05-14T09:00:42;30.27;;;27.47;;
12567;SDS011;6349;50.904;6.136;2023-05-14T09:02:44;29.53;;;26.93;;
12567;SDS011;6349;50.904;6.136;2023-05-14T09:04:50;30.57;;;27.57;;
12567;SDS011;6349;50.904;6.136;2023-05-14T09:06:54;29.77;;;26.97;;
12567;SDS011;6349;50.904;6.136;2023-05-14T09:08:56;30.10;;;27.40;;
12567;SDS011;6349;50.904;6.136;2023-05-14T09:10:58;30.95;;;28.13;;
12567;SDS011;6349;50.904;6.136;2023-05-14T09:13:00;31.23;;;28.43;;
12567;SDS011;6349;50.904;6.136;2023-05-14T09:15:02;29.30;;;26.55;;
12567;SDS011;6349;50.904;6.136;2023-05-14T09:17:05;30.27;;;27.50;;
12567;SDS011;6349;50.904;6.136;2023-05-14T09:19:07;31.30;;;28.30;;
12567;SDS011;6349;50.904;6.136;2023-05-14T09:21:09;31.77;;;28.90;;
12567;SDS011;6349;50.904;6.136;2023-05-14T09:23:13;31.35;;;28.35;;
12567;SDS011;6349;50.904;6.136;2023-05-14T09:25:15;31.02;;;28.23;;
12567;SDS011;6349;50.904;6.136;2023-05-14T09:27:20;30.95;;;28.20;;
12567;SDS011;6349;50.904;6.136;2023-05-14T09:29:25;29.77;;;27.08;;
12567;SDS011;6349;50.904;6.136;2023-05-14T09:31:32;30.83;;;27.92;;
12567;SDS011;6349;50.904;6.136;2023-05-14T09:33:34;30.73;;;27.92;;
12567;SDS011;6349;50.904;6.136;2023-05-14T09:35:37;30.92;;;28.10;;
12567;SDS011;6349;50.904;6.136;2023-05-14T09:37:42;30.65;;;27.83;;
12567;SDS011;6349;50.904;6.136;2023-05-14T09:39:46;31.38;;;28.27;;
12567;SDS011;6349;50.904;6.136;2023-05-14T09:41:49;28.85;;;26.20;;
12567;SDS011;6349;50.904;6.136;2023-05-14T09:43:55;31.45;;;28.35;;
12567;SDS011;6349;50.904;6.136;2023-05-14T09:45:57;30.63;;;27.83;;
12567;SDS011;6349;50.904;6.136;2023-05-14T09:47:59;31.17;;;28.33;;
12567;SDS011;6349;50.904;6.136;2023-05-14T09:50:02;32.13;;;29.00;;
12567;SDS011;6349;50.904;6.136;2023-05-14T09:52:05;30.67;;;27.77;;
12567;SDS011;6349;50.904;6.136;2023-05-14T09:54:07;30.67;;;27.67;;
12567;SDS011;6349;50.904;6.136;2023-05-14T09:56:09;30.27;;;27.27;;
12567;SDS011;6349;50.904;6.136;2023-05-14T09:58:11;32.10;;;29.23;;
12567;SDS011;6349;50.904;6.136;2023-05-14T10:00:16;30.63;;;27.92;;
12567;SDS011;6349;50.904;6.136;2023-05-14T10:02:28;31.05;;;28.05;;
12567;SDS011;6349;50.904;6.136;2023-05-14T10:04:37;32.10;;;29.10;;
12567;SDS011;6349;50.904;6.136;2023-05-14T10:06:39;31.00;;;28.25;;
12567;SDS011;6349;50.904;6.136;2023-05-14T10:08:43;32.20;;;29.08;;
12567;SDS011;6349;50.904;6.136;2023-05-14T10:10:45;30.67;;;27.95;;
12567;SDS011;6349;50.904;6.136;2023-05-14T10:12:57;30.58;;;27.80;;
12567;SDS011;6349;50.904;6.136;2023-05-14T10:15:09;30.23;;;27.50;;
12567;SDS011;6349;50.904;6.136;2023-05-14T10:17:16;30.20;;;27.40;;
12567;SDS011;6349;50.904;6.136;2023-05-14T10:19:22;29.40;;;26.55;;
12567;SDS011;6349;50.904;6.136;2023-05-14T10:21:25;29.27;;;26.63;;
12567;SDS011;6349;50.904;6.136;2023-05-14T10:23:29;30.02;;;27.33;;
12567;SDS011;6349;50.904;6.136;2023-05-14T10:25:31;30.08;;;27.27;;
12567;SDS011;6349;50.904;6.136;2023-05-14T10:27:33;29.38;;;26.77;;
12567;SDS011;6349;50.904;6.136;2023-05-14T10:29:35;30.38;;;27.63;;
12567;SDS011;6349;50.904;6.136;2023-05-14T10:31:52;29.55;;;26.92;;
12567;SDS011;6349;50.904;6.136;2023-05-14T10:33:56;28.17;;;25.65;;
12567;SDS011;6349;50.904;6.136;2023-05-14T10:38:06;29.85;;;27.15;;
12567;SDS011;6349;50.904;6.136;2023-05-14T10:40:09;29.10;;;26.42;;
12567;SDS011;6349;50.904;6.136;2023-05-14T10:42:12;29.92;;;27.02;;
12567;SDS011;6349;50.904;6.136;2023-05-14T10:44:22;28.75;;;26.08;;
12567;SDS011;6349;50.904;6.136;2023-05-14T10:46:23;29.27;;;26.77;;
12567;SDS011;6349;50.904;6.136;2023-05-14T10:48:27;29.58;;;26.65;;
12567;SDS011;6349;50.904;6.136;2023-05-14T10:50:31;30.60;;;27.73;;
12567;SDS011;6349;50.904;6.136;2023-05-14T10:52:33;29.95;;;27.27;;
12567;SDS011;6349;50.904;6.136;2023-05-14T10:54:38;30.55;;;27.92;;
12567;SDS011;6349;50.904;6.136;2023-05-14T10:56:42;30.98;;;28.17;;
12567;SDS011;6349;50.904;6.136;2023-05-14T10:58:45;30.67;;;27.98;;
12567;SDS011;6349;50.904;6.136;2023-05-14T11:00:52;30.65;;;27.92;;
12567;SDS011;6349;50.904;6.136;2023-05-14T11:02:57;29.23;;;26.75;;
12567;SDS011;6349;50.904;6.136;2023-05-14T11:05:00;28.98;;;26.40;;
12567;SDS011;6349;50.904;6.136;2023-05-14T11:07:04;28.33;;;25.92;;
12567;SDS011;6349;50.904;6.136;2023-05-14T11:09:04;27.83;;;25.25;;
12567;SDS011;6349;50.904;6.136;2023-05-14T11:11:07;28.15;;;25.65;;
12567;SDS011;6349;50.904;6.136;2023-05-14T11:13:08;29.15;;;26.50;;
12567;SDS011;6349;50.904;6.136;2023-05-14T11:15:13;28.80;;;26.30;;
12567;SDS011;6349;50.904;6.136;2023-05-14T11:17:21;28.73;;;25.88;;
12567;SDS011;6349;50.904;6.136;2023-05-14T11:19:25;27.95;;;25.42;;
12567;SDS011;6349;50.904;6.136;2023-05-14T11:21:25;26.92;;;24.63;;
12567;SDS011;6349;50.904;6.136;2023-05-14T11:23:26;26.60;;;24.20;;
12567;SDS011;6349;50.904;6.136;2023-05-14T11:25:27;28.35;;;25.75;;
12567;SDS011;6349;50.904;6.136;2023-05-14T11:27:30;28.05;;;25.35;;
12567;SDS011;6349;50.904;6.136;2023-05-14T11:29:35;25.55;;;23.50;;
12567;SDS011;6349;50.904;6.136;2023-05-14T11:31:37;24.15;;;22.13;;
12567;SDS011;6349;50.904;6.136;2023-05-14T11:33:40;24.38;;;22.38;;
12567;SDS011;6349;50.904;6.136;2023-05-14T11:35:42;25.70;;;23.42;;
12567;SDS011;6349;50.904;6.136;2023-05-14T11:37:52;24.67;;;22.55;;
12567;SDS011;6349;50.904;6.136;2023-05-14T11:39:53;20.00;;;18.30;;
12567;SDS011;6349;50.904;6.136;2023-05-14T11:41:54;16.92;;;15.40;;
12567;SDS011;6349;50.904;6.136;2023-05-14T11:43:56;16.88;;;15.48;;
12567;SDS011;6349;50.904;6.136;2023-05-14T11:45:57;18.55;;;17.00;;
12567;SDS011;6349;50.904;6.136;2023-05-14T11:47:59;18.80;;;17.10;;
12567;SDS011;6349;50.904;6.136;2023-05-14T11:50:00;21.02;;;18.80;;
12567;SDS011;6349;50.904;6.136;2023-05-14T11:52:05;21.55;;;19.63;;
12567;SDS011;6349;50.904;6.136;2023-05-14T11:54:08;20.92;;;19.02;;
12567;SDS011;6349;50.904;6.136;2023-05-14T11:56:10;24.17;;;22.08;;
12567;SDS011;6349;50.904;6.136;2023-05-14T11:58:11;25.58;;;23.23;;
12567;SDS011;6349;50.904;6.136;2023-05-14T12:00:13;24.02;;;21.98;;
12567;SDS011;6349;50.904;6.136;2023-05-14T12:02:20;24.63;;;22.52;;
12567;SDS011;6349;50.904;6.136;2023-05-14T12:04:21;23.98;;;21.85;;
12567;SDS011;6349;50.904;6.136;2023-05-14T12:06:22;23.67;;;21.40;;
12567;SDS011;6349;50.904;6.136;2023-05-14T12:08:31;21.60;;;19.80;;
12567;SDS011;6349;50.904;6.136;2023-05-14T12:10:40;19.20;;;17.50;;
12567;SDS011;6349;50.904;6.136;2023-05-14T12:12:43;19.23;;;17.55;;
12567;SDS011;6349;50.904;6.136;2023-05-14T12:14:46;19.92;;;18.05;;
12567;SDS011;6349;50.904;6.136;2023-05-14T12:16:49;16.27;;;14.88;;
12567;SDS011;6349;50.904;6.136;2023-05-14T12:18:50;14.38;;;13.18;;
12567;SDS011;6349;50.904;6.136;2023-05-14T12:20:52;13.15;;;11.77;;
12567;SDS011;6349;50.904;6.136;2023-05-14T12:22:53;14.20;;;13.02;;